SHT22A EGLL-EGJB
Flight info
| Callsign | SHT22A |
|---|---|
| Flight time | 0h 33m |
| Altitude | 23000 |
| Route | GASGU2J GASGU N866 SAM/N0390F220 N63 LELNA LELNA1V |
| Aircraft | A319/M-SDE2E3FGHIJ1RWXY/SB1 |
Departure
| Time | 2026-04-23 18:30 |
|---|---|
| Airport | London Heathrow Airport (EGLL) |
Arrival
| Time | 2026-04-23 19:04 |
|---|---|
| Airport | Guernsey Airport (EGJB) |
| Time | Latitude | Longitude | Altitude | Speed | Heading |
|---|---|---|---|---|---|
| 2026-04-23 18:03 | 51.47188 | -0.48591 | 88 ft | 0 kts | 269° |
| 2026-04-23 18:21 | 51.47188 | -0.48590 | 86 ft | 1 kts | 269° |
| 2026-04-23 18:21 | 51.47188 | -0.48553 | 86 ft | 4 kts | 269° |
| 2026-04-23 18:21 | 51.47188 | -0.48511 | 86 ft | 4 kts | 259° |
| 2026-04-23 18:21 | 51.47199 | -0.48478 | 89 ft | 4 kts | 203° |
| 2026-04-23 18:22 | 51.47218 | -0.48473 | 90 ft | 4 kts | 179° |
| 2026-04-23 18:22 | 51.47226 | -0.48473 | 86 ft | 0 kts | 179° |
| 2026-04-23 18:24 | 51.47211 | -0.48473 | 90 ft | 4 kts | 179° |
| 2026-04-23 18:25 | 51.47115 | -0.48472 | 86 ft | 10 kts | 179° |
| 2026-04-23 18:25 | 51.47033 | -0.48471 | 86 ft | 13 kts | 179° |
| 2026-04-23 18:25 | 51.46932 | -0.48470 | 86 ft | 16 kts | 179° |
| 2026-04-23 18:25 | 51.46830 | -0.48470 | 86 ft | 13 kts | 180° |
| 2026-04-23 18:26 | 51.46730 | -0.48470 | 86 ft | 16 kts | 179° |
| 2026-04-23 18:26 | 51.46625 | -0.48468 | 86 ft | 11 kts | 179° |
| 2026-04-23 18:26 | 51.46595 | -0.48468 | 86 ft | 1 kts | 179° |
| 2026-04-23 18:26 | 51.46591 | -0.48468 | 87 ft | 0 kts | 179° |
| 2026-04-23 18:27 | 51.46588 | -0.48468 | 87 ft | 1 kts | 179° |
| 2026-04-23 18:27 | 51.46568 | -0.48467 | 87 ft | 4 kts | 179° |
| 2026-04-23 18:28 | 51.46524 | -0.48465 | 87 ft | 8 kts | 179° |
| 2026-04-23 18:28 | 51.46475 | -0.48421 | 90 ft | 10 kts | 96° |
| 2026-04-23 18:28 | 51.46480 | -0.48329 | 88 ft | 0 kts | 90° |
| 2026-04-23 18:29 | 51.46480 | -0.48323 | 88 ft | 1 kts | 90° |
| 2026-04-23 18:29 | 51.46480 | -0.48113 | 88 ft | 48 kts | 90° |
| 2026-04-23 18:29 | 51.46480 | -0.47250 | 87 ft | 106 kts | 90° |
| 2026-04-23 18:30 | 51.46482 | -0.45777 | 120 ft | 154 kts | 91° |
| 2026-04-23 18:30 | 51.46477 | -0.44083 | 806 ft | 149 kts | 91° |
| 2026-04-23 18:30 | 51.46483 | -0.42368 | 1462 ft | 158 kts | 89° |
| 2026-04-23 18:30 | 51.46223 | -0.40542 | 1893 ft | 184 kts | 115° |
| 2026-04-23 18:31 | 51.45465 | -0.38757 | 2391 ft | 204 kts | 122° |
| 2026-04-23 18:31 | 51.44556 | -0.36810 | 2845 ft | 232 kts | 124° |
| 2026-04-23 18:31 | 51.43526 | -0.34762 | 3674 ft | 246 kts | 134° |
| 2026-04-23 18:31 | 51.42030 | -0.33252 | 4703 ft | 258 kts | 156° |
| 2026-04-23 18:32 | 51.40230 | -0.32784 | 5715 ft | 270 kts | 180° |
| 2026-04-23 18:32 | 51.38420 | -0.33551 | 6710 ft | 281 kts | 205° |
| 2026-04-23 18:32 | 51.36844 | -0.35487 | 7656 ft | 289 kts | 220° |
| 2026-04-23 18:32 | 51.35353 | -0.37667 | 8613 ft | 293 kts | 220° |
| 2026-04-23 18:33 | 51.33838 | -0.39884 | 9565 ft | 298 kts | 220° |
| 2026-04-23 18:33 | 51.32295 | -0.42136 | 10463 ft | 303 kts | 219° |
| 2026-04-23 18:33 | 51.30866 | -0.44776 | 10877 ft | 330 kts | 240° |
| 2026-04-23 18:33 | 51.30269 | -0.48429 | 11210 ft | 353 kts | 270° |
| 2026-04-23 18:34 | 51.30831 | -0.52251 | 11850 ft | 359 kts | 299° |
| 2026-04-23 18:34 | 51.32408 | -0.55300 | 12622 ft | 357 kts | 323° |
| 2026-04-23 18:34 | 51.34311 | -0.57884 | 13395 ft | 364 kts | 315° |
| 2026-04-23 18:34 | 51.35608 | -0.61397 | 14157 ft | 374 kts | 291° |
| 2026-04-23 18:35 | 51.36140 | -0.65487 | 14850 ft | 380 kts | 273° |
| 2026-04-23 18:35 | 51.35843 | -0.69683 | 15565 ft | 382 kts | 252° |
| 2026-04-23 18:35 | 51.34693 | -0.73487 | 16301 ft | 381 kts | 232° |
| 2026-04-23 18:35 | 51.32909 | -0.76591 | 17079 ft | 379 kts | 222° |
| 2026-04-23 18:36 | 51.31021 | -0.79553 | 17834 ft | 381 kts | 221° |
| 2026-04-23 18:36 | 51.29116 | -0.82511 | 18563 ft | 384 kts | 221° |
| 2026-04-23 18:36 | 51.27193 | -0.85489 | 19206 ft | 386 kts | 221° |
| 2026-04-23 18:36 | 51.25267 | -0.88482 | 19880 ft | 387 kts | 221° |
| 2026-04-23 18:37 | 51.23336 | -0.91492 | 20563 ft | 389 kts | 221° |
| 2026-04-23 18:37 | 51.21149 | -0.94904 | 21334 ft | 390 kts | 221° |
| 2026-04-23 18:37 | 51.19451 | -0.97551 | 21848 ft | 394 kts | 222° |
| 2026-04-23 18:37 | 51.17480 | -1.00619 | 22394 ft | 398 kts | 222° |
| 2026-04-23 18:38 | 51.15491 | -1.03709 | 23005 ft | 401 kts | 222° |
| 2026-04-23 18:38 | 51.13486 | -1.06823 | 23319 ft | 403 kts | 222° |
| 2026-04-23 18:38 | 51.11493 | -1.09915 | 23380 ft | 397 kts | 222° |
| 2026-04-23 18:38 | 51.09526 | -1.12963 | 23381 ft | 394 kts | 222° |
| 2026-04-23 18:39 | 51.07561 | -1.16004 | 23358 ft | 393 kts | 221° |
| 2026-04-23 18:39 | 51.05596 | -1.19034 | 23358 ft | 393 kts | 221° |
| 2026-04-23 18:39 | 51.03633 | -1.22053 | 23357 ft | 393 kts | 221° |
| 2026-04-23 18:39 | 51.01664 | -1.25077 | 23356 ft | 393 kts | 221° |
| 2026-04-23 18:40 | 50.99697 | -1.28096 | 23356 ft | 393 kts | 221° |
| 2026-04-23 18:40 | 50.97731 | -1.31112 | 23355 ft | 393 kts | 221° |
| 2026-04-23 18:40 | 50.95682 | -1.33965 | 23355 ft | 391 kts | 214° |
| 2026-04-23 18:40 | 50.93381 | -1.36216 | 23354 ft | 388 kts | 204° |
| 2026-04-23 18:41 | 50.90970 | -1.38124 | 23353 ft | 388 kts | 204° |
| 2026-04-23 18:41 | 50.88590 | -1.40020 | 23352 ft | 388 kts | 204° |
| 2026-04-23 18:41 | 50.86150 | -1.41973 | 23353 ft | 391 kts | 205° |
| 2026-04-23 18:41 | 50.83725 | -1.43916 | 23355 ft | 400 kts | 205° |
| 2026-04-23 18:42 | 50.81201 | -1.45932 | 23354 ft | 402 kts | 205° |
| 2026-04-23 18:42 | 50.78738 | -1.47893 | 23353 ft | 402 kts | 205° |
| 2026-04-23 18:42 | 50.76239 | -1.49877 | 23350 ft | 403 kts | 205° |
| 2026-04-23 18:42 | 50.73734 | -1.51868 | 23332 ft | 403 kts | 205° |
| 2026-04-23 18:43 | 50.71231 | -1.53853 | 23334 ft | 401 kts | 205° |
| 2026-04-23 18:43 | 50.68737 | -1.55825 | 23335 ft | 402 kts | 205° |
| 2026-04-23 18:43 | 50.66231 | -1.57804 | 23330 ft | 402 kts | 205° |
| 2026-04-23 18:43 | 50.63730 | -1.59775 | 23332 ft | 402 kts | 205° |
| 2026-04-23 18:44 | 50.61225 | -1.61747 | 23330 ft | 404 kts | 206° |
| 2026-04-23 18:44 | 50.58699 | -1.63735 | 23332 ft | 408 kts | 206° |
| 2026-04-23 18:44 | 50.56159 | -1.65732 | 23331 ft | 407 kts | 206° |
| 2026-04-23 18:44 | 50.53625 | -1.67720 | 23328 ft | 407 kts | 206° |
| 2026-04-23 18:45 | 50.51088 | -1.69710 | 23328 ft | 409 kts | 206° |
| 2026-04-23 18:45 | 50.48551 | -1.71704 | 23322 ft | 408 kts | 206° |
| 2026-04-23 18:45 | 50.46020 | -1.73690 | 23322 ft | 406 kts | 206° |
| 2026-04-23 18:45 | 50.43485 | -1.75673 | 23323 ft | 407 kts | 206° |
| 2026-04-23 18:46 | 50.40948 | -1.77652 | 23330 ft | 408 kts | 206° |
| 2026-04-23 18:46 | 50.38408 | -1.79632 | 23316 ft | 408 kts | 207° |
| 2026-04-23 18:46 | 50.35857 | -1.81621 | 23318 ft | 411 kts | 207° |
| 2026-04-23 18:46 | 50.33281 | -1.83627 | 23322 ft | 415 kts | 207° |
| 2026-04-23 18:47 | 50.30693 | -1.85639 | 23311 ft | 416 kts | 208° |
| 2026-04-23 18:47 | 50.28100 | -1.87651 | 23287 ft | 417 kts | 208° |
| 2026-04-23 18:47 | 50.25505 | -1.89660 | 23015 ft | 415 kts | 208° |
| 2026-04-23 18:47 | 50.22927 | -1.91652 | 22745 ft | 412 kts | 207° |
| 2026-04-23 18:48 | 50.20374 | -1.93626 | 22450 ft | 407 kts | 207° |
| 2026-04-23 18:48 | 50.17844 | -1.95578 | 21964 ft | 403 kts | 207° |
| 2026-04-23 18:48 | 50.15342 | -1.97505 | 21482 ft | 400 kts | 207° |
| 2026-04-23 18:48 | 50.12859 | -1.99416 | 20972 ft | 397 kts | 207° |
| 2026-04-23 18:49 | 50.10426 | -2.01288 | 20469 ft | 395 kts | 206° |
| 2026-04-23 18:49 | 50.07968 | -2.03180 | 19954 ft | 392 kts | 206° |
| 2026-04-23 18:49 | 50.05530 | -2.05055 | 19429 ft | 390 kts | 205° |
| 2026-04-23 18:49 | 50.03110 | -2.06913 | 18898 ft | 387 kts | 204° |
| 2026-04-23 18:50 | 50.01483 | -2.08162 | 18543 ft | 385 kts | 203° |
| 2026-04-23 18:50 | 49.98442 | -2.10920 | 17828 ft | 381 kts | 216° |
| 2026-04-23 18:50 | 49.96498 | -2.13699 | 17319 ft | 378 kts | 226° |
| 2026-04-23 18:50 | 49.94765 | -2.16739 | 16815 ft | 374 kts | 226° |
| 2026-04-23 18:51 | 49.93047 | -2.19751 | 16305 ft | 370 kts | 227° |
| 2026-04-23 18:51 | 49.91345 | -2.22732 | 15629 ft | 371 kts | 226° |
| 2026-04-23 18:51 | 49.89630 | -2.25726 | 15063 ft | 369 kts | 226° |
| 2026-04-23 18:51 | 49.87931 | -2.28688 | 14563 ft | 366 kts | 226° |
| 2026-04-23 18:52 | 49.86242 | -2.31625 | 14068 ft | 363 kts | 226° |
| 2026-04-23 18:52 | 49.84570 | -2.34532 | 13535 ft | 360 kts | 226° |
| 2026-04-23 18:52 | 49.82917 | -2.37410 | 13044 ft | 356 kts | 225° |
| 2026-04-23 18:52 | 49.81278 | -2.40254 | 12557 ft | 352 kts | 225° |
| 2026-04-23 18:53 | 49.79657 | -2.43061 | 12066 ft | 348 kts | 225° |
| 2026-04-23 18:53 | 49.78050 | -2.45843 | 11594 ft | 345 kts | 225° |
| 2026-04-23 18:53 | 49.76458 | -2.48604 | 11118 ft | 343 kts | 225° |
| 2026-04-23 18:53 | 49.74873 | -2.51341 | 10641 ft | 340 kts | 225° |
| 2026-04-23 18:54 | 49.73302 | -2.54044 | 10345 ft | 332 kts | 225° |
| 2026-04-23 18:54 | 49.71791 | -2.56646 | 10227 ft | 319 kts | 224° |
| 2026-04-23 18:54 | 49.70323 | -2.59149 | 10037 ft | 309 kts | 222° |
| 2026-04-23 18:54 | 49.68757 | -2.61356 | 9770 ft | 302 kts | 218° |
| 2026-04-23 18:55 | 49.67189 | -2.63523 | 9319 ft | 303 kts | 218° |
| 2026-04-23 18:55 | 49.65626 | -2.65690 | 8879 ft | 303 kts | 218° |
| 2026-04-23 18:55 | 49.64070 | -2.67850 | 8508 ft | 298 kts | 218° |
| 2026-04-23 18:55 | 49.62532 | -2.69984 | 8017 ft | 296 kts | 218° |
| 2026-04-23 18:56 | 49.61501 | -2.71411 | 7637 ft | 294 kts | 218° |
| 2026-04-23 18:56 | 49.59496 | -2.74180 | 6914 ft | 289 kts | 217° |
| 2026-04-23 18:56 | 49.58005 | -2.76240 | 6675 ft | 288 kts | 217° |
| 2026-04-23 18:56 | 49.56520 | -2.78292 | 6423 ft | 286 kts | 217° |
| 2026-04-23 18:57 | 49.55044 | -2.80328 | 6167 ft | 284 kts | 217° |
| 2026-04-23 18:57 | 49.53555 | -2.82379 | 5917 ft | 282 kts | 218° |
| 2026-04-23 18:57 | 49.52115 | -2.84358 | 5668 ft | 280 kts | 217° |
| 2026-04-23 18:57 | 49.50662 | -2.86351 | 5416 ft | 280 kts | 217° |
| 2026-04-23 18:58 | 49.49218 | -2.88333 | 5167 ft | 275 kts | 217° |
| 2026-04-23 18:58 | 49.47802 | -2.90278 | 4920 ft | 270 kts | 217° |
| 2026-04-23 18:58 | 49.46346 | -2.92088 | 4644 ft | 258 kts | 203° |
| 2026-04-23 18:58 | 49.44694 | -2.92554 | 4400 ft | 234 kts | 165° |
| 2026-04-23 18:59 | 49.43363 | -2.91426 | 4280 ft | 213 kts | 131° |
| 2026-04-23 18:59 | 49.42705 | -2.89484 | 3952 ft | 212 kts | 101° |
| 2026-04-23 18:59 | 49.42697 | -2.87193 | 3619 ft | 211 kts | 90° |
| 2026-04-23 18:59 | 49.42776 | -2.84963 | 3329 ft | 206 kts | 90° |
| 2026-04-23 19:00 | 49.42845 | -2.82811 | 3048 ft | 196 kts | 90° |
| 2026-04-23 19:00 | 49.42906 | -2.80806 | 2810 ft | 185 kts | 90° |
| 2026-04-23 19:00 | 49.42962 | -2.78877 | 2567 ft | 177 kts | 90° |
| 2026-04-23 19:00 | 49.43016 | -2.77034 | 2332 ft | 168 kts | 90° |
| 2026-04-23 19:01 | 49.43066 | -2.75346 | 2119 ft | 148 kts | 90° |
| 2026-04-23 19:01 | 49.43110 | -2.73848 | 1934 ft | 134 kts | 92° |
| 2026-04-23 19:01 | 49.43150 | -2.72429 | 1755 ft | 129 kts | 91° |
| 2026-04-23 19:01 | 49.43188 | -2.71086 | 1586 ft | 127 kts | 91° |
| 2026-04-23 19:02 | 49.43214 | -2.70177 | 1473 ft | 126 kts | 90° |
| 2026-04-23 19:02 | 49.43265 | -2.68400 | 1246 ft | 126 kts | 89° |
| 2026-04-23 19:02 | 49.43303 | -2.67046 | 1067 ft | 127 kts | 87° |
| 2026-04-23 19:02 | 49.43342 | -2.65688 | 900 ft | 127 kts | 86° |
| 2026-04-23 19:03 | 49.43381 | -2.64337 | 692 ft | 127 kts | 85° |
| 2026-04-23 19:03 | 49.43409 | -2.62980 | 526 ft | 128 kts | 84° |
| 2026-04-23 19:03 | 49.43454 | -2.61643 | 360 ft | 124 kts | 82° |
| 2026-04-23 19:03 | 49.43495 | -2.60376 | 336 ft | 114 kts | 87° |
| 2026-04-23 19:04 | 49.43515 | -2.59542 | 346 ft | 44 kts | 88° |
| 2026-04-23 19:04 | 49.43522 | -2.59282 | 348 ft | 11 kts | 87° |
| 2026-04-23 19:04 | 49.43495 | -2.59202 | 347 ft | 10 kts | 156° |
| 2026-04-23 19:04 | 49.43438 | -2.59196 | 355 ft | 8 kts | 179° |
| 2026-04-23 19:05 | 49.43396 | -2.59202 | 345 ft | 8 kts | 200° |
| 2026-04-23 19:05 | 49.43380 | -2.59220 | 352 ft | 5 kts | 221° |
| 2026-04-23 19:05 | 49.43369 | -2.59283 | 345 ft | 8 kts | 269° |
| 2026-04-23 19:05 | 49.43369 | -2.59354 | 345 ft | 7 kts | 270° |
| 2026-04-23 19:06 | 49.43366 | -2.59446 | 348 ft | 11 kts | 267° |
| 2026-04-23 19:06 | 49.43364 | -2.59578 | 348 ft | 14 kts | 268° |
| 2026-04-23 19:06 | 49.43361 | -2.59675 | 345 ft | 4 kts | 266° |
| 2026-04-23 19:06 | 49.43331 | -2.59693 | 345 ft | 7 kts | 178° |
| 2026-04-23 19:07 | 49.43320 | -2.59691 | 345 ft | 0 kts | 176° |
| 2026-04-23 19:07 | 49.43314 | -2.59691 | 345 ft | 3 kts | 176° |
| 2026-04-23 19:08 | 49.43283 | -2.59689 | 345 ft | 6 kts | 178° |
| 2026-04-23 19:08 | 49.43270 | -2.59688 | 345 ft | 2 kts | 178° |
| 2026-04-23 19:08 | 49.43261 | -2.59688 | 345 ft | 0 kts | 178° |
| 2026-04-23 19:08 | 49.43260 | -2.59688 | 345 ft | 0 kts | 178° |